createdAt,value
2019-06-10T00:01:36.952Z,95317.41
2019-06-10T00:04:08.780Z,95319.84
2019-06-10T00:06:38.148Z,95306.80
2019-06-10T00:09:11.544Z,95322.32
2019-06-10T00:11:41.064Z,95312.87
2019-06-10T00:14:10.892Z,95309.49
2019-06-10T00:16:41.577Z,95308.09
2019-06-10T00:19:12.762Z,95307.75
2019-06-10T00:21:43.307Z,95314.35
2019-06-10T00:24:12.806Z,95309.70
2019-06-10T00:26:42.226Z,95308.06
2019-06-10T00:29:12.133Z,95313.00
2019-06-10T00:31:41.870Z,95319.09
2019-06-10T00:34:12.452Z,95324.73
2019-06-10T00:36:42.121Z,95318.03
2019-06-10T00:39:13.549Z,95321.30
2019-06-10T00:41:43.190Z,95317.11
2019-06-10T00:44:12.952Z,95320.91
2019-06-10T00:46:43.548Z,95319.05
2019-06-10T00:49:14.775Z,95329.91
2019-06-10T00:51:44.612Z,95330.67
2019-06-10T00:54:15.767Z,95321.77
2019-06-10T00:56:45.429Z,95317.30
2019-06-10T00:59:15.478Z,95326.57
2019-06-10T01:01:45.342Z,95317.58
2019-06-10T01:04:16.405Z,95314.88
2019-06-10T01:06:47.338Z,95316.73
2019-06-10T01:09:18.212Z,95306.12
2019-06-10T01:11:47.713Z,95306.59
2019-06-10T01:14:17.279Z,95317.98
2019-06-10T01:16:46.888Z,95319.88
2019-06-10T01:19:16.397Z,95316.94
2019-06-10T01:21:45.965Z,95326.72
2019-06-10T01:24:15.506Z,95315.23
2019-06-10T01:26:46.043Z,95311.72
2019-06-10T01:29:15.695Z,95309.44
2019-06-10T01:31:45.251Z,95294.11
2019-06-10T01:34:15.142Z,95301.96
2019-06-10T01:36:45.949Z,95300.21
2019-06-10T01:39:16.823Z,95298.20
2019-06-10T01:41:46.697Z,95293.91
2019-06-10T01:44:17.590Z,95287.28
2019-06-10T01:46:47.484Z,95286.17
2019-06-10T01:49:18.137Z,95283.37
2019-06-10T01:51:47.971Z,95295.30
2019-06-10T01:54:18.467Z,95281.60
2019-06-10T01:56:50.859Z,95287.23
2019-06-10T01:59:21.992Z,95300.21
2019-06-10T02:02:04.903Z,95299.30
2019-06-10T02:04:35.444Z,95298.30
2019-06-10T02:07:05.043Z,95303.44
2019-06-10T02:09:34.543Z,95300.43
2019-06-10T02:12:04.315Z,95303.03
2019-06-10T02:14:33.852Z,95298.08
2019-06-10T02:17:03.426Z,95290.17
2019-06-10T02:19:32.994Z,95292.59
2019-06-10T02:22:02.728Z,95287.09
2019-06-10T02:24:32.226Z,95285.73
2019-06-10T02:27:01.795Z,95289.13
2019-06-10T02:29:31.330Z,95291.47
2019-06-10T02:32:04.840Z,95291.31
2019-06-10T02:34:37.419Z,95285.39
2019-06-10T02:37:04.879Z,95297.28
2019-06-10T02:39:38.667Z,95295.04
2019-06-10T02:42:07.904Z,95295.88
2019-06-10T02:44:37.963Z,95300.91
2019-06-10T02:47:07.812Z,95296.33
2019-06-10T02:49:55.648Z,95295.98
2019-06-10T02:52:20.176Z,95293.68
2019-06-10T02:54:49.273Z,95288.08
2019-06-10T02:57:25.733Z,95289.67
2019-06-10T02:59:54.439Z,95293.22
2019-06-10T03:02:29.202Z,95300.55
2019-06-10T03:04:54.713Z,95290.70
2019-06-10T03:07:28.744Z,95291.58
2019-06-10T03:09:55.439Z,95302.72
2019-06-10T03:12:25.933Z,95290.78
2019-06-10T03:14:55.545Z,95293.09
2019-06-10T03:17:26.790Z,95287.80
2019-06-10T03:19:57.492Z,95297.61
2019-06-10T03:22:28.353Z,95296.28
2019-06-10T03:24:58.357Z,95296.17
2019-06-10T03:27:27.984Z,95300.00
2019-06-10T03:29:57.590Z,95302.32
2019-06-10T03:32:33.197Z,95299.32
2019-06-10T03:34:58.646Z,95304.59
2019-06-10T03:37:28.121Z,95300.05
2019-06-10T03:39:57.686Z,95300.68
2019-06-10T03:42:28.221Z,95310.05
2019-06-10T03:44:57.819Z,95305.36
2019-06-10T03:47:28.775Z,95315.27
2019-06-10T03:49:58.603Z,95307.01
2019-06-10T03:52:28.620Z,95293.18
2019-06-10T03:54:58.508Z,95292.53
2019-06-10T03:57:28.699Z,95291.20
2019-06-10T03:59:58.315Z,95294.03
2019-06-10T04:02:28.510Z,95298.31
2019-06-10T04:04:58.456Z,95292.26
2019-06-10T04:07:30.991Z,95294.19
2019-06-10T04:09:59.195Z,95278.55
2019-06-10T04:12:29.166Z,95276.75
2019-06-10T04:14:58.984Z,95278.73
2019-06-10T04:17:28.841Z,95277.17
2019-06-10T04:20:09.311Z,95279.04
2019-06-10T04:22:29.869Z,95283.17
2019-06-10T04:25:02.998Z,95274.16
2019-06-10T04:27:32.864Z,95278.86
2019-06-10T04:30:03.358Z,95277.41
2019-06-10T04:32:33.221Z,95280.66
2019-06-10T04:35:02.782Z,95278.44
2019-06-10T04:37:32.610Z,95270.03
2019-06-10T04:40:02.869Z,95265.20
2019-06-10T04:42:33.094Z,95266.42
2019-06-10T04:45:03.271Z,95259.86
2019-06-10T04:47:33.427Z,95263.27
2019-06-10T04:50:20.547Z,95259.80
2019-06-10T04:52:36.838Z,95255.88
2019-06-10T04:58:02.537Z,95250.42
2019-06-10T05:00:33.125Z,95249.66
2019-06-10T05:03:11.978Z,95244.98
2019-06-10T05:05:37.592Z,95240.60
2019-06-10T05:08:07.220Z,95238.83
2019-06-10T05:10:36.909Z,95237.03
2019-06-10T05:13:06.906Z,95232.66
2019-06-10T05:15:36.647Z,95222.83
2019-06-10T05:18:06.337Z,95230.75
2019-06-10T05:20:51.330Z,95228.73
2019-06-10T05:23:07.884Z,95225.84
2019-06-10T05:25:39.897Z,95228.54
2019-06-10T05:28:12.267Z,95216.23
2019-06-10T05:30:42.712Z,95216.74
2019-06-10T05:33:13.472Z,95214.61
2019-06-10T05:35:43.594Z,95217.11
2019-06-10T05:38:13.143Z,95213.81
2019-06-10T05:40:42.877Z,95203.36
2019-06-10T05:43:13.111Z,95205.95
2019-06-10T05:45:43.398Z,95209.02
2019-06-10T05:48:16.680Z,95183.39
2019-06-10T05:50:59.023Z,95185.63
2019-06-10T05:53:15.759Z,95181.39
2019-06-10T05:55:45.297Z,95162.88
2019-06-10T05:58:15.869Z,95185.06
2019-06-10T06:00:45.491Z,95183.70
2019-06-10T06:03:15.063Z,95170.00
2019-06-10T06:05:44.665Z,95177.11
2019-06-10T06:08:14.420Z,95171.48
2019-06-10T06:10:44.159Z,95177.34
2019-06-10T06:13:13.949Z,95161.77
2019-06-10T06:15:43.757Z,95152.52
2019-06-10T06:18:14.958Z,95163.38
2019-06-10T06:20:44.607Z,95151.55
2019-06-10T06:23:14.436Z,95143.14
2019-06-10T06:25:47.064Z,95156.40
2019-06-10T06:28:16.330Z,95153.79
2019-06-10T06:30:46.208Z,95139.91
2019-06-10T06:33:15.691Z,95140.56
2019-06-10T06:35:46.666Z,95135.72
2019-06-10T06:38:16.425Z,95145.02
2019-06-10T06:40:46.129Z,95133.19
2019-06-10T06:43:15.777Z,95140.86
2019-06-10T06:45:45.671Z,95136.94
2019-06-10T06:48:15.383Z,95117.66
2019-06-10T06:51:00.159Z,95131.13
2019-06-10T06:53:33.099Z,95133.55
2019-06-10T06:55:56.074Z,95144.59
2019-06-10T06:58:25.605Z,95145.13
2019-06-10T07:01:04.426Z,95142.82
2019-06-10T07:03:26.560Z,95125.76
2019-06-10T07:05:56.851Z,95124.67
2019-06-10T07:08:27.990Z,95113.48
2019-06-10T07:10:59.290Z,95114.58
2019-06-10T07:13:28.829Z,95122.08
2019-06-10T07:15:58.391Z,95123.66
2019-06-10T07:18:27.959Z,95127.35
2019-06-10T07:20:57.531Z,95120.06
2019-06-10T07:23:27.022Z,95114.80
2019-06-10T07:25:56.699Z,95118.95
2019-06-10T07:28:26.212Z,95115.07
2019-06-10T07:30:55.850Z,95119.12
2019-06-10T07:33:25.527Z,95127.04
2019-06-10T07:35:56.613Z,95136.55
2019-06-10T07:38:26.477Z,95121.15
2019-06-10T07:40:56.015Z,95127.33
2019-06-10T07:43:25.809Z,95128.13
2019-06-10T07:45:55.750Z,95130.37
2019-06-10T07:48:25.233Z,95120.97
2019-06-10T07:50:55.731Z,95129.14
2019-06-10T07:53:25.561Z,95123.30
2019-06-10T07:55:55.049Z,95125.42
2019-06-10T07:58:24.536Z,95130.91
2019-06-10T08:00:54.144Z,95126.52
2019-06-10T08:03:23.881Z,95131.47
2019-06-10T08:05:53.436Z,95123.23
2019-06-10T08:08:23.563Z,95124.76
2019-06-10T08:10:54.146Z,95112.66
2019-06-10T08:13:28.807Z,95124.20
2019-06-10T08:15:58.416Z,95124.59
2019-06-10T08:18:28.050Z,95123.11
2019-06-10T08:20:57.873Z,95117.09
2019-06-10T08:23:27.701Z,95108.38
2019-06-10T08:25:57.911Z,95104.05
2019-06-10T08:28:27.863Z,95100.32
2019-06-10T08:30:57.489Z,95100.39
2019-06-10T08:37:14.457Z,95090.32
2019-06-10T08:39:45.928Z,95089.82
2019-06-10T08:42:15.426Z,95088.65
2019-06-10T08:44:47.243Z,95074.22
2019-06-10T08:47:17.660Z,95067.92
2019-06-10T08:49:55.293Z,95066.89
2019-06-10T08:52:24.986Z,95029.03
2019-06-10T08:54:56.630Z,95050.78
2019-06-10T08:57:26.454Z,95050.80
2019-06-10T08:59:56.030Z,95044.90
2019-06-10T09:02:35.604Z,95036.44
2019-06-10T09:05:05.876Z,95043.84
2019-06-10T09:07:35.426Z,95029.52
2019-06-10T09:10:06.355Z,95036.72
2019-06-10T09:12:36.720Z,95034.91
2019-06-10T09:15:07.606Z,95019.28
2019-06-10T09:17:37.257Z,95029.95
2019-06-10T09:20:09.263Z,95024.19
2019-06-10T09:22:41.181Z,94991.68
2019-06-10T09:25:12.399Z,95023.70
2019-06-10T09:27:45.936Z,95021.42
2019-06-10T09:30:14.483Z,95021.30
2019-06-10T09:32:48.447Z,95020.30
2019-06-10T09:35:15.879Z,95013.02
2019-06-10T09:37:48.360Z,95011.80
2019-06-10T09:40:18.265Z,95008.20
2019-06-10T09:42:50.763Z,95007.09
2019-06-10T09:45:19.490Z,95007.85
2019-06-10T09:47:58.374Z,95022.35
2019-06-10T09:50:25.485Z,95009.53
2019-06-10T09:52:57.115Z,95012.31
2019-06-10T09:55:29.730Z,94996.48
2019-06-10T09:58:00.073Z,94999.13
2019-06-10T10:00:47.376Z,94978.70
2019-06-10T10:03:14.017Z,94989.38
2019-06-10T10:05:55.765Z,95005.30
2019-06-10T10:08:15.662Z,94996.85
2019-06-10T10:10:49.451Z,94986.56
2019-06-10T10:13:16.867Z,94978.79
2019-06-10T10:15:48.117Z,94973.90
2019-06-10T10:18:17.798Z,94964.05
2019-06-10T10:20:49.779Z,94976.78
2019-06-10T10:23:18.699Z,94994.58
2019-06-10T10:25:52.008Z,94987.23
2019-06-10T10:28:23.050Z,95002.13
2019-06-10T10:30:55.846Z,95012.78
2019-06-10T10:33:29.531Z,94994.67
2019-06-10T10:35:55.079Z,95006.72
2019-06-10T10:38:24.833Z,94999.91
2019-06-10T10:40:58.474Z,94990.00
2019-06-10T10:43:33.164Z,94984.37
2019-06-10T10:46:00.182Z,94961.45
2019-06-10T10:48:28.794Z,94969.97
2019-06-10T10:50:58.355Z,94957.03
2019-06-10T10:53:28.108Z,94956.61
2019-06-10T10:55:59.045Z,94952.53
2019-06-10T10:58:28.623Z,94956.73
2019-06-10T11:00:58.235Z,94955.91
2019-06-10T11:03:28.071Z,94948.06
2019-06-10T11:06:00.912Z,94945.73
2019-06-10T11:08:29.334Z,94949.89
2019-06-10T11:11:04.553Z,94948.56
2019-06-10T11:13:36.549Z,94950.45
2019-06-10T11:16:06.655Z,94946.38
2019-06-10T11:18:36.262Z,94938.80
2019-06-10T11:21:05.972Z,94921.47
2019-06-10T11:23:36.132Z,94909.23
2019-06-10T11:26:05.968Z,94899.31
2019-06-10T11:28:35.597Z,94897.69
2019-06-10T11:31:05.858Z,94893.72
2019-06-10T11:33:35.475Z,94901.28
2019-06-10T11:36:05.173Z,94885.78
2019-06-10T11:38:35.454Z,94886.62
2019-06-10T11:41:05.499Z,94885.03
2019-06-10T11:43:35.769Z,94870.52
2019-06-10T11:46:08.395Z,94878.99
2019-06-10T11:52:00.332Z,94875.07
2019-06-10T11:54:32.738Z,94877.16
2019-06-10T11:57:58.161Z,94885.44
2019-06-10T11:59:48.011Z,94883.02
2019-06-10T12:02:17.754Z,94880.74
2019-06-10T12:04:48.368Z,94864.60
2019-06-10T12:07:19.208Z,94861.71
2019-06-10T12:09:56.993Z,94859.11
2019-06-10T12:12:26.132Z,94865.27
2019-06-10T12:14:59.275Z,94861.03
2019-06-10T12:17:42.018Z,94863.49
2019-06-10T12:20:03.237Z,94866.58
2019-06-10T12:22:33.111Z,94869.02
2019-06-10T12:25:30.445Z,94874.02
2019-06-10T12:27:36.219Z,94887.36
2019-06-10T12:30:13.264Z,94873.38
2019-06-10T12:32:43.659Z,94874.69
2019-06-10T12:35:13.948Z,94880.86
2019-06-10T12:37:43.797Z,94878.00
2019-06-10T12:40:14.424Z,94876.17
2019-06-10T12:42:44.306Z,94870.22
2019-06-10T12:45:14.875Z,94864.84
2019-06-10T12:47:44.464Z,94850.83
2019-06-10T12:50:15.742Z,94853.00
2019-06-10T12:52:47.028Z,94850.75
2019-06-10T12:55:18.677Z,94847.69
2019-06-10T12:57:52.155Z,94843.44
2019-06-10T13:00:26.457Z,94844.88
2019-06-10T13:02:57.906Z,94851.97
2019-06-10T13:05:27.610Z,94844.86
2019-06-10T13:07:59.790Z,94839.42
2019-06-10T13:10:42.921Z,94837.03
2019-06-10T13:13:12.180Z,94847.48
2019-06-10T13:15:43.394Z,94840.17
2019-06-10T13:18:18.937Z,94829.47
2019-06-10T13:20:45.325Z,94823.36
2019-06-10T13:23:23.629Z,94827.08
2019-06-10T13:25:54.230Z,94818.00
2019-06-10T13:28:22.231Z,94824.36
2019-06-10T13:30:54.625Z,94821.09
2019-06-10T13:33:24.894Z,94802.67
2019-06-10T13:35:54.650Z,94812.84
2019-06-10T13:38:25.847Z,94810.84
2019-06-10T13:40:57.625Z,94796.82
2019-06-10T13:43:28.722Z,94808.78
2019-06-10T13:45:58.298Z,94807.58
2019-06-10T13:48:27.955Z,94794.09
2019-06-10T13:50:58.654Z,94783.77
2019-06-10T13:53:28.394Z,94801.22
2019-06-10T13:56:23.548Z,94794.09
2019-06-10T13:58:29.477Z,94794.81
2019-06-10T14:00:59.817Z,94800.08
2019-06-10T14:03:32.404Z,94817.97
2019-06-10T14:06:10.779Z,94822.80
2019-06-10T14:08:33.459Z,94828.48
2019-06-10T14:11:06.746Z,94835.84
2019-06-10T14:13:34.608Z,94844.69
2019-06-10T14:16:05.488Z,94858.97
2019-06-10T14:18:35.518Z,94860.64
2019-06-10T14:21:09.279Z,94858.27
2019-06-10T14:23:42.546Z,94864.09
2019-06-10T14:26:16.452Z,94865.00
2019-06-10T14:28:47.914Z,94864.17
2019-06-10T14:31:38.311Z,94865.19
2019-06-10T14:33:54.461Z,94871.30
2019-06-10T14:36:29.074Z,94876.88
2019-06-10T14:38:58.660Z,94892.82
2019-06-10T14:41:32.524Z,94888.17
2019-06-10T14:44:01.447Z,94894.09
2019-06-10T14:46:32.978Z,94891.58
2019-06-10T14:49:02.451Z,94892.59
2019-06-10T14:51:32.629Z,94896.23
2019-06-10T14:54:03.199Z,94889.64
2019-06-10T14:56:33.319Z,94893.05
2019-06-10T14:59:03.543Z,94879.32
2019-06-10T15:01:33.156Z,94874.11
2019-06-10T15:04:03.079Z,94877.00
2019-06-10T15:06:33.989Z,94871.27
2019-06-10T15:09:05.693Z,94875.72
2019-06-10T15:11:35.975Z,94865.14
2019-06-10T15:14:05.695Z,94857.31
2019-06-10T15:16:35.191Z,94853.58
2019-06-10T15:19:14.599Z,94855.69
2019-06-10T15:21:36.212Z,94852.02
2019-06-10T15:24:05.879Z,94852.75
2019-06-10T15:26:35.606Z,94830.42
2019-06-10T15:29:05.367Z,94830.48
2019-06-10T15:31:35.009Z,94831.75
2019-06-10T15:34:06.916Z,94819.72
2019-06-10T15:36:36.645Z,94811.26
2019-06-10T15:39:08.967Z,94805.16
2019-06-10T15:41:38.804Z,94797.34
2019-06-10T15:44:09.681Z,94778.59
2019-06-10T15:46:39.325Z,94783.33
2019-06-10T15:49:10.456Z,94781.84
2019-06-10T15:51:40.661Z,94785.67
2019-06-10T15:54:13.044Z,94778.60
2019-06-10T15:56:50.045Z,94783.48
2019-06-10T15:59:15.337Z,94784.84
2019-06-10T16:01:44.640Z,94774.70
2019-06-10T16:04:17.221Z,94783.69
2019-06-10T16:06:47.052Z,94782.70
2019-06-10T16:09:16.955Z,94791.26
2019-06-10T16:11:47.748Z,94783.10
2019-06-10T16:14:18.671Z,94794.14
2019-06-10T16:16:48.423Z,94801.59
2019-06-10T16:19:19.532Z,94795.57
2019-06-10T16:21:49.666Z,94791.55
2019-06-10T16:24:24.090Z,94781.64
2019-06-10T16:26:52.622Z,94777.19
2019-06-10T16:29:24.214Z,94780.06
2019-06-10T16:31:53.655Z,94777.02
2019-06-10T16:34:27.280Z,94771.52
2019-06-10T16:36:54.549Z,94782.80
2019-06-10T16:39:26.467Z,94787.67
2019-06-10T16:41:55.423Z,94788.01
2019-06-10T16:44:28.006Z,94802.09
2019-06-10T16:46:56.256Z,94813.53
2019-06-10T16:49:25.813Z,94812.18
2019-06-10T16:51:56.368Z,94819.49
2019-06-10T16:54:27.141Z,94820.95
2019-06-10T16:56:56.971Z,94828.67
2019-06-10T16:59:27.565Z,94841.86
2019-06-10T17:01:57.492Z,94841.62
2019-06-10T17:04:27.719Z,94844.73
2019-06-10T17:06:57.631Z,94849.98
2019-06-10T17:09:27.892Z,94854.20
2019-06-10T17:11:58.633Z,94851.05
2019-06-10T17:14:28.821Z,94849.98
2019-06-10T17:16:58.526Z,94860.75
2019-06-10T17:19:29.959Z,94862.60
2019-06-10T17:21:59.675Z,94864.48
2019-06-10T17:24:30.775Z,94869.73
2019-06-10T17:27:02.581Z,94871.34
2019-06-10T17:29:51.997Z,94881.55
2019-06-10T17:32:23.883Z,94867.44
2019-06-10T17:34:53.299Z,94867.67
2019-06-10T17:37:22.922Z,94867.16
2019-06-10T17:39:56.882Z,94860.53
2019-06-10T17:42:30.896Z,94856.09
2019-06-10T17:44:58.042Z,94843.55
2019-06-10T17:47:28.757Z,94851.71
2019-06-10T17:49:59.120Z,94850.94
2019-06-10T17:52:28.671Z,94850.95
2019-06-10T17:54:58.328Z,94848.59
2019-06-10T17:57:28.724Z,94843.09
2019-06-10T18:00:00.303Z,94843.09
2019-06-10T18:02:31.153Z,94840.48
2019-06-10T18:05:03.250Z,94846.24
2019-06-10T18:07:35.754Z,94844.17
2019-06-10T18:10:07.730Z,94842.33
2019-06-10T18:12:39.285Z,94854.09
2019-06-10T18:15:09.290Z,94850.17
2019-06-10T18:17:38.799Z,94843.13
2019-06-10T18:20:08.957Z,94850.45
2019-06-10T18:22:38.562Z,94850.98
2019-06-10T18:25:08.564Z,94850.42
2019-06-10T18:27:38.151Z,94847.29
2019-06-10T18:30:11.471Z,94853.31
2019-06-10T18:32:39.858Z,94866.64
2019-06-10T18:35:10.022Z,94873.41
2019-06-10T18:37:39.690Z,94882.52
2019-06-10T18:40:14.466Z,94876.20
2019-06-10T18:42:43.230Z,94886.84
2019-06-10T18:45:13.759Z,94881.91
2019-06-10T18:47:43.516Z,94891.31
2019-06-10T18:50:15.964Z,94891.34
2019-06-10T18:52:45.649Z,94900.73
2019-06-10T18:55:17.526Z,94902.79
2019-06-10T18:57:47.028Z,94911.34
2019-06-10T19:00:17.012Z,94918.62
2019-06-10T19:02:46.510Z,94923.23
2019-06-10T19:05:16.648Z,94928.19
2019-06-10T19:07:46.931Z,94918.20
2019-06-10T19:10:17.164Z,94910.55
2019-06-10T19:12:47.859Z,94915.67
2019-06-10T19:15:18.896Z,94921.27
2019-06-10T19:17:50.380Z,94927.93
2019-06-10T19:20:20.633Z,94931.77
2019-06-10T19:22:52.587Z,94926.52
2019-06-10T19:25:21.849Z,94920.99
2019-06-10T19:27:52.975Z,94920.68
2019-06-10T19:30:23.375Z,94922.43
2019-06-10T19:32:53.219Z,94919.83
2019-06-10T19:35:22.896Z,94918.34
2019-06-10T19:37:52.529Z,94938.64
2019-06-10T19:40:22.738Z,94932.73
2019-06-10T19:42:52.589Z,94939.30
2019-06-10T19:45:23.777Z,94938.02
2019-06-10T19:47:56.603Z,94930.73
2019-06-10T19:50:24.694Z,94936.14
2019-06-10T19:52:55.754Z,94946.10
2019-06-10T19:55:25.574Z,94964.86
2019-06-10T19:57:55.349Z,94969.56
2019-06-10T20:00:24.925Z,94967.27
2019-06-10T20:02:54.458Z,94964.73
2019-06-10T20:05:25.471Z,94973.11
2019-06-10T20:07:54.983Z,94972.35
2019-06-10T20:10:24.591Z,94981.77
2019-06-10T20:12:55.446Z,94979.89
2019-06-10T20:15:25.824Z,94980.17
2019-06-10T20:17:55.632Z,94988.84
2019-06-10T20:20:26.574Z,94981.52
2019-06-10T20:22:57.573Z,94977.08
2019-06-10T20:25:27.323Z,94975.80
2019-06-10T20:27:56.890Z,94983.42
2019-06-10T20:30:28.878Z,94984.20
2019-06-10T20:32:58.034Z,94982.92
2019-06-10T20:35:27.452Z,94980.33
2019-06-10T20:37:56.893Z,94975.88
2019-06-10T20:40:26.507Z,94966.19
2019-06-10T20:42:56.087Z,94963.27
2019-06-10T20:45:25.591Z,94967.44
2019-06-10T20:47:55.014Z,94958.02
2019-06-10T20:50:24.593Z,94943.33
2019-06-10T20:52:54.102Z,94941.20
2019-06-10T20:55:39.789Z,94933.77
2019-06-10T20:58:03.311Z,94925.30
2019-06-10T21:00:35.029Z,94929.70
2019-06-10T21:03:05.842Z,94930.95
2019-06-10T21:05:35.646Z,94928.34
2019-06-10T21:08:06.340Z,94923.63
2019-06-10T21:10:37.405Z,94914.36
2019-06-10T21:13:07.883Z,94916.39
2019-06-10T21:15:38.141Z,94920.50
2019-06-10T21:18:07.708Z,94921.17
2019-06-10T21:20:37.390Z,94932.67
2019-06-10T21:23:06.947Z,94912.08
2019-06-10T21:25:36.580Z,94919.88
2019-06-10T21:28:06.045Z,94928.12
2019-06-10T21:30:41.761Z,94934.09
2019-06-10T21:33:07.336Z,94930.41
2019-06-10T21:35:36.826Z,94938.34
2019-06-10T21:38:06.317Z,94935.41
2019-06-10T21:40:36.942Z,94938.56
2019-06-10T21:43:06.506Z,94945.73
2019-06-10T21:45:36.079Z,94940.52
2019-06-10T21:48:06.070Z,94932.69
2019-06-10T21:50:36.705Z,94937.20
2019-06-10T21:53:06.465Z,94939.23
2019-06-10T21:55:36.125Z,94933.45
2019-06-10T21:58:05.680Z,94930.59
2019-06-10T22:01:03.265Z,94933.20
2019-06-10T22:03:23.446Z,94933.13
2019-06-10T22:05:53.803Z,94925.81
2019-06-10T22:08:23.615Z,94921.84
2019-06-10T22:10:55.091Z,94914.17
2019-06-10T22:13:26.586Z,94914.77
2019-06-10T22:15:57.213Z,94904.75
2019-06-10T22:18:27.528Z,94910.41
2019-06-10T22:20:57.780Z,94909.28
2019-06-10T22:23:27.881Z,94912.27
2019-06-10T22:25:58.747Z,94903.09
2019-06-10T22:28:28.462Z,94908.05
2019-06-10T22:31:15.207Z,94915.51
2019-06-10T22:33:29.694Z,94926.33
2019-06-10T22:35:59.354Z,94912.73
2019-06-10T22:38:28.849Z,94911.39
2019-06-10T22:40:59.301Z,94906.09
2019-06-10T22:43:29.113Z,94919.03
2019-06-10T22:45:59.925Z,94914.87
2019-06-10T22:48:29.570Z,94913.67
2019-06-10T22:50:59.562Z,94911.58
2019-06-10T22:53:29.404Z,94901.19
2019-06-10T22:55:59.307Z,94901.92
2019-06-10T22:58:28.915Z,94887.34
2019-06-10T23:00:58.492Z,94882.73
2019-06-10T23:03:28.066Z,94880.59
2019-06-10T23:05:58.523Z,94876.77
2019-06-10T23:08:28.324Z,94881.06
2019-06-10T23:10:58.533Z,94883.30
2019-06-10T23:13:29.516Z,94872.80
2019-06-10T23:15:59.820Z,94869.47
2019-06-10T23:18:29.430Z,94883.00
2019-06-10T23:20:59.707Z,94878.41
2019-06-10T23:23:32.585Z,94880.59
2019-06-10T23:26:02.926Z,94882.34
2019-06-10T23:28:32.882Z,94873.95
2019-06-10T23:31:05.290Z,94868.53
2019-06-10T23:33:33.812Z,94866.45
2019-06-10T23:36:04.043Z,94859.14
2019-06-10T23:38:34.118Z,94856.75
2019-06-10T23:41:03.942Z,94853.08
2019-06-10T23:43:33.801Z,94856.11
2019-06-10T23:46:04.330Z,94855.81
2019-06-10T23:48:34.357Z,94858.76
2019-06-10T23:51:05.065Z,94860.15
2019-06-10T23:53:35.796Z,94863.22
2019-06-10T23:56:05.437Z,94849.04
2019-06-10T23:58:34.969Z,94839.92
